Hauptseite
METAR-TAF:

METAR-TAF

Flughäfen :

Tōkyō Heliport

Tokio Heliport, Japan

Breite: 35-38N, Länge: 139-51E, Höhe: 5 m

Beobachtung

Neuester Wetterbericht von vor 7 Stunden und 32 Minuten, um 07:00 UTC
Wind 11 kt aus Ost/Südost
Temperatur 18°C
Luftfeuchtigkeit 73%
Luftdruck 1016 hPa
Sichtweite 10 km oder mehr
Leicht bewölkt in der Höhe von 2000 ft
Durchbrochene Bewölkung in der Höhe von 2500 ft
Durchbrochene Bewölkung in der Höhe von 4000 ft
Schauer in der Nähe,

METAR: RJTI 230700Z 12011KT 9999 VCSH FEW020 BKN025 BKN040 18/13 Q1016

Zeit: 23:32 (14:32 UTC)


TAF: fehlend

Wetterbeobachtungen und Prognosen von mehr als 4000 Flughäfen (METAR und TAF Bericht).

Die verfügbaren Stationen werden durch gelbe und rote Markierungen auf der Karte dargestellt.

Führen Sie die Maus auf sie, um den Namen der Station zu sehen.

Darauf klicken, um die Beobachtung von Wetterbeobachtungen und Prognosen zu sehen.

Um die Karte zu ändern : klicken Sie auf den grünen Tasten mit einem schwarzen Kreuz Zum Vergrößern, auf den grünen Button mit einem Gedankenstrich zu verkleinern, oder auf die grünen Pfeile für benachbarte Karten.


METAR-TAF: